sensor_id;sensor_type;location;lat;lon;timestamp;temperature;humidity
7048;DHT22;3565;53.254;10.352;2023-07-22T00:04:18;13.40;1.00
7048;DHT22;3565;53.254;10.352;2023-07-22T00:06:47;13.40;1.00
7048;DHT22;3565;53.254;10.352;2023-07-22T00:09:16;13.40;1.00
7048;DHT22;3565;53.254;10.352;2023-07-22T00:14:22;13.40;1.00
7048;DHT22;3565;53.254;10.352;2023-07-22T00:19:31;13.50;1.00
7048;DHT22;3565;53.254;10.352;2023-07-22T00:24:37;13.60;1.00
7048;DHT22;3565;53.254;10.352;2023-07-22T00:27:07;13.50;1.00
7048;DHT22;3565;53.254;10.352;2023-07-22T00:29:36;13.60;1.00
7048;DHT22;3565;53.254;10.352;2023-07-22T00:32:09;13.50;1.00
7048;DHT22;3565;53.254;10.352;2023-07-22T00:34:39;13.50;1.00
7048;DHT22;3565;53.254;10.352;2023-07-22T00:37:08;13.50;1.00
7048;DHT22;3565;53.254;10.352;2023-07-22T00:39:37;13.40;1.00
7048;DHT22;3565;53.254;10.352;2023-07-22T00:42:08;13.40;1.00
7048;DHT22;3565;53.254;10.352;2023-07-22T00:44:37;13.40;1.00
7048;DHT22;3565;53.254;10.352;2023-07-22T00:47:07;13.40;1.00
7048;DHT22;3565;53.254;10.352;2023-07-22T00:49:37;13.40;1.00
7048;DHT22;3565;53.254;10.352;2023-07-22T00:52:06;13.40;1.00
7048;DHT22;3565;53.254;10.352;2023-07-22T00:54:35;13.30;1.00
7048;DHT22;3565;53.254;10.352;2023-07-22T00:57:04;13.30;1.00
7048;DHT22;3565;53.254;10.352;2023-07-22T00:59:35;13.40;1.00
7048;DHT22;3565;53.254;10.352;2023-07-22T01:02:05;13.40;1.00
7048;DHT22;3565;53.254;10.352;2023-07-22T01:04:35;13.30;1.00
7048;DHT22;3565;53.254;10.352;2023-07-22T01:07:06;13.30;1.00
7048;DHT22;3565;53.254;10.352;2023-07-22T01:09:37;13.30;1.00
7048;DHT22;3565;53.254;10.352;2023-07-22T01:12:07;13.30;1.00
7048;DHT22;3565;53.254;10.352;2023-07-22T01:14:39;13.30;1.00
7048;DHT22;3565;53.254;10.352;2023-07-22T01:17:11;13.30;1.00
7048;DHT22;3565;53.254;10.352;2023-07-22T01:19:41;13.30;1.00
7048;DHT22;3565;53.254;10.352;2023-07-22T01:22:10;13.30;1.00
7048;DHT22;3565;53.254;10.352;2023-07-22T01:24:40;13.30;1.00
7048;DHT22;3565;53.254;10.352;2023-07-22T01:27:10;13.20;1.00
7048;DHT22;3565;53.254;10.352;2023-07-22T01:29:39;13.10;1.00
7048;DHT22;3565;53.254;10.352;2023-07-22T01:32:09;13.10;1.00
7048;DHT22;3565;53.254;10.352;2023-07-22T01:34:38;13.10;1.00
7048;DHT22;3565;53.254;10.352;2023-07-22T01:37:07;13.10;1.00
7048;DHT22;3565;53.254;10.352;2023-07-22T01:39:37;13.00;1.00
7048;DHT22;3565;53.254;10.352;2023-07-22T01:42:06;13.00;1.00
7048;DHT22;3565;53.254;10.352;2023-07-22T01:44:35;13.00;1.00
7048;DHT22;3565;53.254;10.352;2023-07-22T01:47:05;13.00;1.00
7048;DHT22;3565;53.254;10.352;2023-07-22T01:49:34;13.00;1.00
7048;DHT22;3565;53.254;10.352;2023-07-22T01:52:05;13.00;1.00
7048;DHT22;3565;53.254;10.352;2023-07-22T01:54:34;13.00;1.00
7048;DHT22;3565;53.254;10.352;2023-07-22T01:57:05;13.00;1.00
7048;DHT22;3565;53.254;10.352;2023-07-22T01:59:34;12.90;1.00
7048;DHT22;3565;53.254;10.352;2023-07-22T02:02:05;12.80;1.00
7048;DHT22;3565;53.254;10.352;2023-07-22T02:04:34;12.80;1.00
7048;DHT22;3565;53.254;10.352;2023-07-22T02:09:41;12.80;1.00
7048;DHT22;3565;53.254;10.352;2023-07-22T02:12:12;12.70;1.00
7048;DHT22;3565;53.254;10.352;2023-07-22T02:14:41;12.70;1.00
7048;DHT22;3565;53.254;10.352;2023-07-22T02:17:11;12.70;1.00
7048;DHT22;3565;53.254;10.352;2023-07-22T02:19:40;12.70;1.00
7048;DHT22;3565;53.254;10.352;2023-07-22T02:22:09;12.70;1.00
7048;DHT22;3565;53.254;10.352;2023-07-22T02:24:39;12.60;1.00
7048;DHT22;3565;53.254;10.352;2023-07-22T02:27:08;12.60;1.00
7048;DHT22;3565;53.254;10.352;2023-07-22T02:29:37;12.60;1.00
7048;DHT22;3565;53.254;10.352;2023-07-22T02:32:08;12.50;1.00
7048;DHT22;3565;53.254;10.352;2023-07-22T02:34:37;12.50;1.00
7048;DHT22;3565;53.254;10.352;2023-07-22T02:37:06;12.50;1.00
7048;DHT22;3565;53.254;10.352;2023-07-22T02:39:35;12.40;1.00
7048;DHT22;3565;53.254;10.352;2023-07-22T02:42:07;12.40;1.00
7048;DHT22;3565;53.254;10.352;2023-07-22T02:44:36;12.40;1.00
7048;DHT22;3565;53.254;10.352;2023-07-22T02:47:05;12.40;1.00
7048;DHT22;3565;53.254;10.352;2023-07-22T02:49:34;12.40;1.00
7048;DHT22;3565;53.254;10.352;2023-07-22T02:52:05;12.30;1.00
7048;DHT22;3565;53.254;10.352;2023-07-22T02:54:38;12.30;1.00
7048;DHT22;3565;53.254;10.352;2023-07-22T02:57:09;12.30;1.00
7048;DHT22;3565;53.254;10.352;2023-07-22T02:59:38;12.30;1.00
7048;DHT22;3565;53.254;10.352;2023-07-22T03:02:07;12.30;1.00
7048;DHT22;3565;53.254;10.352;2023-07-22T03:04:38;12.20;1.00
7048;DHT22;3565;53.254;10.352;2023-07-22T03:09:46;12.20;1.00
7048;DHT22;3565;53.254;10.352;2023-07-22T03:12:15;12.20;1.00
7048;DHT22;3565;53.254;10.352;2023-07-22T03:17:23;12.20;1.00
7048;DHT22;3565;53.254;10.352;2023-07-22T03:22:30;12.10;1.00
7048;DHT22;3565;53.254;10.352;2023-07-22T03:24:59;12.20;1.00
7048;DHT22;3565;53.254;10.352;2023-07-22T03:30:08;12.10;1.00
7048;DHT22;3565;53.254;10.352;2023-07-22T03:35:17;12.00;1.00
7048;DHT22;3565;53.254;10.352;2023-07-22T03:37:46;12.10;1.00
7048;DHT22;3565;53.254;10.352;2023-07-22T03:42:55;12.10;1.00
7048;DHT22;3565;53.254;10.352;2023-07-22T03:45:25;12.20;1.00
7048;DHT22;3565;53.254;10.352;2023-07-22T03:47:56;12.10;1.00
7048;DHT22;3565;53.254;10.352;2023-07-22T03:50:26;12.10;1.00
7048;DHT22;3565;53.254;10.352;2023-07-22T03:53:14;12.10;1.00
7048;DHT22;3565;53.254;10.352;2023-07-22T03:58:22;12.20;1.00
7048;DHT22;3565;53.254;10.352;2023-07-22T04:03:29;12.30;1.00
7048;DHT22;3565;53.254;10.352;2023-07-22T04:08:37;12.30;1.00
7048;DHT22;3565;53.254;10.352;2023-07-22T04:13:44;12.40;1.00
7048;DHT22;3565;53.254;10.352;2023-07-22T04:18:51;12.50;1.00
7048;DHT22;3565;53.254;10.352;2023-07-22T04:21:20;12.50;1.00
7048;DHT22;3565;53.254;10.352;2023-07-22T04:26:27;12.60;1.00
7048;DHT22;3565;53.254;10.352;2023-07-22T04:31:34;12.70;1.00
7048;DHT22;3565;53.254;10.352;2023-07-22T04:34:04;12.70;1.00
7048;DHT22;3565;53.254;10.352;2023-07-22T04:39:13;12.80;1.00
7048;DHT22;3565;53.254;10.352;2023-07-22T04:44:20;12.80;1.00
7048;DHT22;3565;53.254;10.352;2023-07-22T04:49:28;12.90;1.00
7048;DHT22;3565;53.254;10.352;2023-07-22T04:54:34;12.90;1.00
7048;DHT22;3565;53.254;10.352;2023-07-22T04:57:06;13.00;1.00
7048;DHT22;3565;53.254;10.352;2023-07-22T04:59:35;13.00;1.00
7048;DHT22;3565;53.254;10.352;2023-07-22T05:02:05;13.00;1.00
7048;DHT22;3565;53.254;10.352;2023-07-22T05:04:34;13.10;1.00
7048;DHT22;3565;53.254;10.352;2023-07-22T05:07:04;13.30;1.00
7048;DHT22;3565;53.254;10.352;2023-07-22T05:09:33;13.20;1.00
7048;DHT22;3565;53.254;10.352;2023-07-22T05:12:03;13.40;1.00
7048;DHT22;3565;53.254;10.352;2023-07-22T05:14:32;13.50;1.00
7048;DHT22;3565;53.254;10.352;2023-07-22T05:17:02;13.60;1.00
7048;DHT22;3565;53.254;10.352;2023-07-22T05:19:31;13.60;1.00
7048;DHT22;3565;53.254;10.352;2023-07-22T05:24:37;13.90;1.00
7048;DHT22;3565;53.254;10.352;2023-07-22T05:27:07;14.20;1.00
7048;DHT22;3565;53.254;10.352;2023-07-22T05:29:36;14.30;1.00
7048;DHT22;3565;53.254;10.352;2023-07-22T05:34:45;14.60;1.00
7048;DHT22;3565;53.254;10.352;2023-07-22T05:37:14;14.50;1.00
7048;DHT22;3565;53.254;10.352;2023-07-22T05:42:22;15.10;1.00
7048;DHT22;3565;53.254;10.352;2023-07-22T05:47:28;15.60;1.00
7048;DHT22;3565;53.254;10.352;2023-07-22T05:49:57;15.70;1.00
7048;DHT22;3565;53.254;10.352;2023-07-22T05:52:26;15.60;1.00
7048;DHT22;3565;53.254;10.352;2023-07-22T05:57:32;15.70;1.00
7048;DHT22;3565;53.254;10.352;2023-07-22T06:00:02;16.20;1.00
7048;DHT22;3565;53.254;10.352;2023-07-22T06:02:31;16.40;1.00
7048;DHT22;3565;53.254;10.352;2023-07-22T06:07:37;16.90;1.00
7048;DHT22;3565;53.254;10.352;2023-07-22T06:10:08;17.20;1.00
7048;DHT22;3565;53.254;10.352;2023-07-22T06:12:38;17.30;1.00
7048;DHT22;3565;53.254;10.352;2023-07-22T06:15:09;17.20;1.00
7048;DHT22;3565;53.254;10.352;2023-07-22T06:17:39;16.40;1.00
7048;DHT22;3565;53.254;10.352;2023-07-22T06:20:11;16.60;1.00
7048;DHT22;3565;53.254;10.352;2023-07-22T06:22:40;17.60;1.00
7048;DHT22;3565;53.254;10.352;2023-07-22T06:27:49;18.40;99.90
7048;DHT22;3565;53.254;10.352;2023-07-22T06:32:57;18.70;99.90
7048;DHT22;3565;53.254;10.352;2023-07-22T06:35:26;17.90;99.90
7048;DHT22;3565;53.254;10.352;2023-07-22T06:40:33;18.40;99.90
7048;DHT22;3565;53.254;10.352;2023-07-22T06:43:02;18.30;99.90
7048;DHT22;3565;53.254;10.352;2023-07-22T06:45:33;18.70;99.90
7048;DHT22;3565;53.254;10.352;2023-07-22T06:48:02;18.30;99.90
7048;DHT22;3565;53.254;10.352;2023-07-22T06:50:31;18.10;99.90
7048;DHT22;3565;53.254;10.352;2023-07-22T06:53:00;17.70;99.90
7048;DHT22;3565;53.254;10.352;2023-07-22T06:55:29;17.90;99.90
7048;DHT22;3565;53.254;10.352;2023-07-22T06:57:59;18.70;99.90
7048;DHT22;3565;53.254;10.352;2023-07-22T07:00:28;19.30;99.90
7048;DHT22;3565;53.254;10.352;2023-07-22T07:05:34;19.70;99.90
7048;DHT22;3565;53.254;10.352;2023-07-22T07:08:04;19.20;99.90
7048;DHT22;3565;53.254;10.352;2023-07-22T07:10:37;18.70;99.90
7048;DHT22;3565;53.254;10.352;2023-07-22T07:13:06;18.50;99.90
7048;DHT22;3565;53.254;10.352;2023-07-22T07:15:37;19.10;99.90
7048;DHT22;3565;53.254;10.352;2023-07-22T07:18:06;19.80;99.90
7048;DHT22;3565;53.254;10.352;2023-07-22T07:20:35;19.80;99.90
7048;DHT22;3565;53.254;10.352;2023-07-22T07:23:04;19.90;99.90
7048;DHT22;3565;53.254;10.352;2023-07-22T07:25:33;20.60;99.90
7048;DHT22;3565;53.254;10.352;2023-07-22T07:28:02;21.40;99.90
7048;DHT22;3565;53.254;10.352;2023-07-22T07:30:31;21.50;99.90
7048;DHT22;3565;53.254;10.352;2023-07-22T07:35:38;20.30;99.90
7048;DHT22;3565;53.254;10.352;2023-07-22T07:38:07;21.00;99.90
7048;DHT22;3565;53.254;10.352;2023-07-22T07:40:36;21.30;99.90
7048;DHT22;3565;53.254;10.352;2023-07-22T07:43:04;21.60;99.90
7048;DHT22;3565;53.254;10.352;2023-07-22T07:45:33;21.20;99.90
7048;DHT22;3565;53.254;10.352;2023-07-22T07:48:03;21.10;99.90
7048;DHT22;3565;53.254;10.352;2023-07-22T07:50:33;19.70;99.90
7048;DHT22;3565;53.254;10.352;2023-07-22T07:53:02;20.00;99.90
7048;DHT22;3565;53.254;10.352;2023-07-22T07:55:30;20.70;99.90
7048;DHT22;3565;53.254;10.352;2023-07-22T08:00:37;20.50;99.90
7048;DHT22;3565;53.254;10.352;2023-07-22T08:03:06;20.30;99.90
7048;DHT22;3565;53.254;10.352;2023-07-22T08:05:35;19.60;99.90
7048;DHT22;3565;53.254;10.352;2023-07-22T08:08:04;20.10;99.90
7048;DHT22;3565;53.254;10.352;2023-07-22T08:10:33;20.30;99.90
7048;DHT22;3565;53.254;10.352;2023-07-22T08:13:02;20.70;99.90
7048;DHT22;3565;53.254;10.352;2023-07-22T08:15:31;21.00;99.90
7048;DHT22;3565;53.254;10.352;2023-07-22T08:18:02;21.00;99.90
7048;DHT22;3565;53.254;10.352;2023-07-22T08:20:32;20.70;99.90
7048;DHT22;3565;53.254;10.352;2023-07-22T08:25:38;20.40;99.90
7048;DHT22;3565;53.254;10.352;2023-07-22T08:28:07;20.10;99.90
7048;DHT22;3565;53.254;10.352;2023-07-22T08:30:36;19.80;99.90
7048;DHT22;3565;53.254;10.352;2023-07-22T08:33:06;19.90;99.90
7048;DHT22;3565;53.254;10.352;2023-07-22T08:35:36;20.00;99.90
7048;DHT22;3565;53.254;10.352;2023-07-22T08:38:05;19.70;99.90
7048;DHT22;3565;53.254;10.352;2023-07-22T08:40:35;19.40;99.90
7048;DHT22;3565;53.254;10.352;2023-07-22T08:43:05;20.40;99.90
7048;DHT22;3565;53.254;10.352;2023-07-22T08:45:36;20.70;99.90
7048;DHT22;3565;53.254;10.352;2023-07-22T08:48:07;20.80;99.90
7048;DHT22;3565;53.254;10.352;2023-07-22T08:50:41;20.60;99.90
7048;DHT22;3565;53.254;10.352;2023-07-22T08:53:13;21.50;99.90
7048;DHT22;3565;53.254;10.352;2023-07-22T08:58:19;21.60;99.90
7048;DHT22;3565;53.254;10.352;2023-07-22T09:03:27;20.80;99.90
7048;DHT22;3565;53.254;10.352;2023-07-22T09:05:57;21.00;99.90
7048;DHT22;3565;53.254;10.352;2023-07-22T09:11:04;20.30;99.90
7048;DHT22;3565;53.254;10.352;2023-07-22T09:13:34;21.80;99.90
7048;DHT22;3565;53.254;10.352;2023-07-22T09:18:44;22.20;99.90
7048;DHT22;3565;53.254;10.352;2023-07-22T09:23:50;21.70;99.90
7048;DHT22;3565;53.254;10.352;2023-07-22T09:28:58;22.80;99.90
7048;DHT22;3565;53.254;10.352;2023-07-22T09:31:28;23.40;99.90
7048;DHT22;3565;53.254;10.352;2023-07-22T09:36:43;24.20;99.90
7048;DHT22;3565;53.254;10.352;2023-07-22T09:39:15;23.60;99.90
7048;DHT22;3565;53.254;10.352;2023-07-22T09:44:21;23.70;99.90
7048;DHT22;3565;53.254;10.352;2023-07-22T09:49:28;24.90;99.90
7048;DHT22;3565;53.254;10.352;2023-07-22T09:54:34;24.40;99.90
7048;DHT22;3565;53.254;10.352;2023-07-22T09:57:05;23.70;99.90
7048;DHT22;3565;53.254;10.352;2023-07-22T09:59:34;23.40;99.90
7048;DHT22;3565;53.254;10.352;2023-07-22T10:02:04;23.70;99.90
7048;DHT22;3565;53.254;10.352;2023-07-22T10:04:34;24.40;99.90
7048;DHT22;3565;53.254;10.352;2023-07-22T10:09:42;24.00;99.90
7048;DHT22;3565;53.254;10.352;2023-07-22T10:14:49;24.00;99.90
7048;DHT22;3565;53.254;10.352;2023-07-22T10:17:20;22.30;99.90
7048;DHT22;3565;53.254;10.352;2023-07-22T10:22:30;23.00;99.90
7048;DHT22;3565;53.254;10.352;2023-07-22T10:27:37;22.50;99.90
7048;DHT22;3565;53.254;10.352;2023-07-22T10:30:09;22.20;99.90
7048;DHT22;3565;53.254;10.352;2023-07-22T10:32:40;21.50;99.90
7048;DHT22;3565;53.254;10.352;2023-07-22T10:35:11;20.90;99.90
7048;DHT22;3565;53.254;10.352;2023-07-22T10:37:41;20.60;99.90
7048;DHT22;3565;53.254;10.352;2023-07-22T10:40:26;21.00;99.90
7048;DHT22;3565;53.254;10.352;2023-07-22T10:42:58;21.50;99.90
7048;DHT22;3565;53.254;10.352;2023-07-22T10:45:29;21.50;99.90
7048;DHT22;3565;53.254;10.352;2023-07-22T10:48:08;21.40;99.90
7048;DHT22;3565;53.254;10.352;2023-07-22T10:53:29;21.10;99.90
7048;DHT22;3565;53.254;10.352;2023-07-22T10:59:00;22.20;99.90
7048;DHT22;3565;53.254;10.352;2023-07-22T11:04:24;23.00;99.90
7048;DHT22;3565;53.254;10.352;2023-07-22T11:09:39;23.00;99.90
7048;DHT22;3565;53.254;10.352;2023-07-22T11:14:48;22.70;99.90
7048;DHT22;3565;53.254;10.352;2023-07-22T11:19:56;22.50;99.90
7048;DHT22;3565;53.254;10.352;2023-07-22T11:22:25;22.20;99.90
7048;DHT22;3565;53.254;10.352;2023-07-22T11:24:57;22.00;99.90
7048;DHT22;3565;53.254;10.352;2023-07-22T11:27:26;22.10;99.90
7048;DHT22;3565;53.254;10.352;2023-07-22T11:32:33;20.70;99.90
7048;DHT22;3565;53.254;10.352;2023-07-22T11:35:03;20.80;99.90
7048;DHT22;3565;53.254;10.352;2023-07-22T11:37:32;20.90;99.90
7048;DHT22;3565;53.254;10.352;2023-07-22T11:42:39;21.20;99.90
7048;DHT22;3565;53.254;10.352;2023-07-22T11:45:09;22.10;99.90
7048;DHT22;3565;53.254;10.352;2023-07-22T11:47:41;22.30;99.90
7048;DHT22;3565;53.254;10.352;2023-07-22T11:50:11;22.90;99.90
7048;DHT22;3565;53.254;10.352;2023-07-22T11:52:40;22.60;99.90
7048;DHT22;3565;53.254;10.352;2023-07-22T11:55:11;22.50;99.90
7048;DHT22;3565;53.254;10.352;2023-07-22T11:57:41;22.20;99.90
7048;DHT22;3565;53.254;10.352;2023-07-22T12:02:50;22.60;99.90
7048;DHT22;3565;53.254;10.352;2023-07-22T12:05:22;22.70;99.90
7048;DHT22;3565;53.254;10.352;2023-07-22T12:07:51;22.80;99.90
7048;DHT22;3565;53.254;10.352;2023-07-22T12:13:00;23.40;99.90
7048;DHT22;3565;53.254;10.352;2023-07-22T12:15:30;23.10;99.90
7048;DHT22;3565;53.254;10.352;2023-07-22T12:20:36;22.60;99.90
7048;DHT22;3565;53.254;10.352;2023-07-22T12:23:05;22.20;99.90
7048;DHT22;3565;53.254;10.352;2023-07-22T12:25:34;22.50;99.90
7048;DHT22;3565;53.254;10.352;2023-07-22T12:28:04;22.90;99.90
7048;DHT22;3565;53.254;10.352;2023-07-22T12:30:34;22.90;99.90
7048;DHT22;3565;53.254;10.352;2023-07-22T12:33:03;23.20;99.90
7048;DHT22;3565;53.254;10.352;2023-07-22T12:35:32;23.50;99.90
7048;DHT22;3565;53.254;10.352;2023-07-22T12:40:39;23.80;99.90
7048;DHT22;3565;53.254;10.352;2023-07-22T12:43:08;24.50;99.90
7048;DHT22;3565;53.254;10.352;2023-07-22T12:45:37;24.90;99.90
7048;DHT22;3565;53.254;10.352;2023-07-22T12:48:07;24.40;99.90
7048;DHT22;3565;53.254;10.352;2023-07-22T12:50:36;23.10;99.90
7048;DHT22;3565;53.254;10.352;2023-07-22T12:53:05;23.50;99.90
7048;DHT22;3565;53.254;10.352;2023-07-22T12:55:34;24.00;99.90
7048;DHT22;3565;53.254;10.352;2023-07-22T12:58:03;24.20;99.90
7048;DHT22;3565;53.254;10.352;2023-07-22T13:00:32;24.10;99.90
7048;DHT22;3565;53.254;10.352;2023-07-22T13:05:39;23.50;99.90
7048;DHT22;3565;53.254;10.352;2023-07-22T13:08:08;23.60;99.90
7048;DHT22;3565;53.254;10.352;2023-07-22T13:10:37;24.00;99.90
7048;DHT22;3565;53.254;10.352;2023-07-22T13:13:07;23.80;99.90
7048;DHT22;3565;53.254;10.352;2023-07-22T13:15:35;23.90;99.90
7048;DHT22;3565;53.254;10.352;2023-07-22T13:18:04;23.30;99.90
7048;DHT22;3565;53.254;10.352;2023-07-22T13:20:33;23.30;99.90
7048;DHT22;3565;53.254;10.352;2023-07-22T13:23:02;22.70;99.90
7048;DHT22;3565;53.254;10.352;2023-07-22T13:25:31;22.90;99.90
7048;DHT22;3565;53.254;10.352;2023-07-22T13:30:38;22.60;99.90
7048;DHT22;3565;53.254;10.352;2023-07-22T13:33:07;22.40;99.90
7048;DHT22;3565;53.254;10.352;2023-07-22T13:35:37;22.60;99.90
7048;DHT22;3565;53.254;10.352;2023-07-22T13:38:06;22.60;99.90
7048;DHT22;3565;53.254;10.352;2023-07-22T13:40:35;22.20;99.90
7048;DHT22;3565;53.254;10.352;2023-07-22T13:43:04;21.50;99.90
7048;DHT22;3565;53.254;10.352;2023-07-22T13:45:34;21.50;99.90
7048;DHT22;3565;53.254;10.352;2023-07-22T13:48:04;21.80;99.90
7048;DHT22;3565;53.254;10.352;2023-07-22T13:50:33;22.00;99.90
7048;DHT22;3565;53.254;10.352;2023-07-22T13:53:02;22.10;99.90
7048;DHT22;3565;53.254;10.352;2023-07-22T13:55:31;22.00;99.90
7048;DHT22;3565;53.254;10.352;2023-07-22T14:00:37;22.10;99.90
7048;DHT22;3565;53.254;10.352;2023-07-22T14:03:07;21.70;99.90
7048;DHT22;3565;53.254;10.352;2023-07-22T14:05:36;21.80;99.90
7048;DHT22;3565;53.254;10.352;2023-07-22T14:08:05;21.50;99.90
7048;DHT22;3565;53.254;10.352;2023-07-22T14:10:34;21.40;99.90
7048;DHT22;3565;53.254;10.352;2023-07-22T14:13:04;21.60;99.90
7048;DHT22;3565;53.254;10.352;2023-07-22T14:15:33;21.40;99.90
7048;DHT22;3565;53.254;10.352;2023-07-22T14:18:03;21.50;99.90
7048;DHT22;3565;53.254;10.352;2023-07-22T14:20:33;21.30;99.90
7048;DHT22;3565;53.254;10.352;2023-07-22T14:23:02;21.20;99.90
7048;DHT22;3565;53.254;10.352;2023-07-22T14:25:32;21.30;99.90
7048;DHT22;3565;53.254;10.352;2023-07-22T14:30:38;20.90;99.90
7048;DHT22;3565;53.254;10.352;2023-07-22T14:33:07;21.00;99.90
7048;DHT22;3565;53.254;10.352;2023-07-22T14:35:36;20.50;99.90
7048;DHT22;3565;53.254;10.352;2023-07-22T14:38:05;20.30;99.90
7048;DHT22;3565;53.254;10.352;2023-07-22T14:40:34;20.50;99.90
7048;DHT22;3565;53.254;10.352;2023-07-22T14:43:02;20.70;99.90
7048;DHT22;3565;53.254;10.352;2023-07-22T14:45:32;20.60;99.90
7048;DHT22;3565;53.254;10.352;2023-07-22T14:50:38;20.20;99.90
7048;DHT22;3565;53.254;10.352;2023-07-22T14:53:07;20.20;99.90
7048;DHT22;3565;53.254;10.352;2023-07-22T14:55:37;20.10;99.90
7048;DHT22;3565;53.254;10.352;2023-07-22T14:58:06;19.90;99.90
7048;DHT22;3565;53.254;10.352;2023-07-22T15:00:35;19.70;99.90
7048;DHT22;3565;53.254;10.352;2023-07-22T15:03:04;19.40;99.90
7048;DHT22;3565;53.254;10.352;2023-07-22T15:05:33;19.50;99.90
7048;DHT22;3565;53.254;10.352;2023-07-22T15:08:02;19.20;99.90
7048;DHT22;3565;53.254;10.352;2023-07-22T15:10:32;19.20;99.90
7048;DHT22;3565;53.254;10.352;2023-07-22T15:15:38;19.40;99.90
7048;DHT22;3565;53.254;10.352;2023-07-22T15:18:07;19.60;99.90
7048;DHT22;3565;53.254;10.352;2023-07-22T15:20:37;19.20;99.90
7048;DHT22;3565;53.254;10.352;2023-07-22T15:23:06;19.10;99.90
7048;DHT22;3565;53.254;10.352;2023-07-22T15:25:36;19.40;99.90
7048;DHT22;3565;53.254;10.352;2023-07-22T15:28:05;19.70;99.90
7048;DHT22;3565;53.254;10.352;2023-07-22T15:30:34;19.90;99.90
7048;DHT22;3565;53.254;10.352;2023-07-22T15:33:04;19.70;99.90
7048;DHT22;3565;53.254;10.352;2023-07-22T15:35:34;19.70;99.90
7048;DHT22;3565;53.254;10.352;2023-07-22T15:38:03;19.60;99.90
7048;DHT22;3565;53.254;10.352;2023-07-22T15:40:34;19.50;99.90
7048;DHT22;3565;53.254;10.352;2023-07-22T15:43:06;19.40;99.90
7048;DHT22;3565;53.254;10.352;2023-07-22T15:45:35;19.40;99.90
7048;DHT22;3565;53.254;10.352;2023-07-22T15:48:05;19.50;99.90
7048;DHT22;3565;53.254;10.352;2023-07-22T15:50:34;19.20;99.90
7048;DHT22;3565;53.254;10.352;2023-07-22T15:53:04;19.20;99.90
7048;DHT22;3565;53.254;10.352;2023-07-22T15:55:33;19.30;99.90
7048;DHT22;3565;53.254;10.352;2023-07-22T15:58:03;19.40;99.90
7048;DHT22;3565;53.254;10.352;2023-07-22T16:00:32;19.40;99.90
7048;DHT22;3565;53.254;10.352;2023-07-22T16:03:01;19.40;99.90
7048;DHT22;3565;53.254;10.352;2023-07-22T16:05:31;19.40;99.90
7048;DHT22;3565;53.254;10.352;2023-07-22T16:10:37;19.30;99.90
7048;DHT22;3565;53.254;10.352;2023-07-22T16:15:45;19.40;99.90
7048;DHT22;3565;53.254;10.352;2023-07-22T16:18:14;19.70;99.90
7048;DHT22;3565;53.254;10.352;2023-07-22T16:23:22;20.10;99.90
7048;DHT22;3565;53.254;10.352;2023-07-22T16:28:28;19.80;99.90
7048;DHT22;3565;53.254;10.352;2023-07-22T16:33:36;19.90;99.90
7048;DHT22;3565;53.254;10.352;2023-07-22T16:36:06;19.80;99.90
7048;DHT22;3565;53.254;10.352;2023-07-22T16:38:35;19.70;99.90
7048;DHT22;3565;53.254;10.352;2023-07-22T16:43:41;19.60;99.90
7048;DHT22;3565;53.254;10.352;2023-07-22T16:48:49;19.20;99.90
7048;DHT22;3565;53.254;10.352;2023-07-22T16:53:55;19.00;99.90
7048;DHT22;3565;53.254;10.352;2023-07-22T16:56:24;19.00;99.90
7048;DHT22;3565;53.254;10.352;2023-07-22T17:01:33;18.80;99.90
7048;DHT22;3565;53.254;10.352;2023-07-22T17:04:02;18.70;99.90
7048;DHT22;3565;53.254;10.352;2023-07-22T17:06:33;18.60;99.90
7048;DHT22;3565;53.254;10.352;2023-07-22T17:14:16;18.20;99.90
7048;DHT22;3565;53.254;10.352;2023-07-22T17:19:23;17.90;99.90
7048;DHT22;3565;53.254;10.352;2023-07-22T17:24:30;17.60;99.90
7048;DHT22;3565;53.254;10.352;2023-07-22T17:29:37;17.50;99.90
7048;DHT22;3565;53.254;10.352;2023-07-22T17:34:44;17.30;99.90
7048;DHT22;3565;53.254;10.352;2023-07-22T17:39:53;17.20;99.90
7048;DHT22;3565;53.254;10.352;2023-07-22T17:42:22;17.00;99.90
7048;DHT22;3565;53.254;10.352;2023-07-22T17:47:28;16.90;99.90
7048;DHT22;3565;53.254;10.352;2023-07-22T17:49:58;16.80;99.90
7048;DHT22;3565;53.254;10.352;2023-07-22T17:55:06;16.70;99.90
7048;DHT22;3565;53.254;10.352;2023-07-22T18:00:16;16.50;99.90
7048;DHT22;3565;53.254;10.352;2023-07-22T18:05:23;16.40;1.00
7048;DHT22;3565;53.254;10.352;2023-07-22T18:10:31;16.40;99.90
7048;DHT22;3565;53.254;10.352;2023-07-22T18:15:37;16.40;99.90
7048;DHT22;3565;53.254;10.352;2023-07-22T18:18:07;16.40;99.90
7048;DHT22;3565;53.254;10.352;2023-07-22T18:20:37;16.30;99.90
7048;DHT22;3565;53.254;10.352;2023-07-22T18:23:06;16.20;99.90
7048;DHT22;3565;53.254;10.352;2023-07-22T18:25:36;16.20;1.00
7048;DHT22;3565;53.254;10.352;2023-07-22T18:28:05;16.20;1.00
7048;DHT22;3565;53.254;10.352;2023-07-22T18:30:35;16.30;1.00
7048;DHT22;3565;53.254;10.352;2023-07-22T18:33:04;16.30;1.00
7048;DHT22;3565;53.254;10.352;2023-07-22T18:35:33;16.30;1.00
7048;DHT22;3565;53.254;10.352;2023-07-22T18:40:43;16.20;1.00
7048;DHT22;3565;53.254;10.352;2023-07-22T18:43:13;16.20;1.00
7048;DHT22;3565;53.254;10.352;2023-07-22T18:48:21;16.10;1.00
7048;DHT22;3565;53.254;10.352;2023-07-22T18:53:32;16.00;1.00
7048;DHT22;3565;53.254;10.352;2023-07-22T18:56:01;16.00;1.00
7048;DHT22;3565;53.254;10.352;2023-07-22T18:58:30;16.00;1.00
7048;DHT22;3565;53.254;10.352;2023-07-22T19:03:37;16.00;1.00
7048;DHT22;3565;53.254;10.352;2023-07-22T19:06:06;15.90;1.00
7048;DHT22;3565;53.254;10.352;2023-07-22T19:08:36;15.90;1.00
7048;DHT22;3565;53.254;10.352;2023-07-22T19:11:05;15.90;1.00
7048;DHT22;3565;53.254;10.352;2023-07-22T19:13:35;15.90;1.00
7048;DHT22;3565;53.254;10.352;2023-07-22T19:16:06;15.90;1.00
7048;DHT22;3565;53.254;10.352;2023-07-22T19:18:35;15.90;1.00
7048;DHT22;3565;53.254;10.352;2023-07-22T19:21:05;15.90;1.00
7048;DHT22;3565;53.254;10.352;2023-07-22T19:23:34;15.70;1.00
7048;DHT22;3565;53.254;10.352;2023-07-22T19:26:03;15.70;1.00
7048;DHT22;3565;53.254;10.352;2023-07-22T19:28:32;15.80;1.00
7048;DHT22;3565;53.254;10.352;2023-07-22T19:33:39;15.70;1.00
7048;DHT22;3565;53.254;10.352;2023-07-22T19:38:47;15.70;1.00
7048;DHT22;3565;53.254;10.352;2023-07-22T19:43:55;15.60;1.00
7048;DHT22;3565;53.254;10.352;2023-07-22T19:46:24;15.60;1.00
7048;DHT22;3565;53.254;10.352;2023-07-22T19:51:31;15.60;1.00
7048;DHT22;3565;53.254;10.352;2023-07-22T19:56:38;15.60;1.00
7048;DHT22;3565;53.254;10.352;2023-07-22T19:59:07;15.60;1.00
7048;DHT22;3565;53.254;10.352;2023-07-22T20:01:36;15.60;1.00
7048;DHT22;3565;53.254;10.352;2023-07-22T20:06:46;15.50;1.00
7048;DHT22;3565;53.254;10.352;2023-07-22T20:09:15;15.50;1.00
7048;DHT22;3565;53.254;10.352;2023-07-22T20:14:23;15.40;1.00
7048;DHT22;3565;53.254;10.352;2023-07-22T20:19:30;15.40;1.00
7048;DHT22;3565;53.254;10.352;2023-07-22T20:24:37;15.30;1.00
7048;DHT22;3565;53.254;10.352;2023-07-22T20:29:43;15.40;1.00
7048;DHT22;3565;53.254;10.352;2023-07-22T20:34:49;15.40;1.00
7048;DHT22;3565;53.254;10.352;2023-07-22T20:37:19;15.40;1.00
7048;DHT22;3565;53.254;10.352;2023-07-22T20:42:27;15.50;1.00
7048;DHT22;3565;53.254;10.352;2023-07-22T20:47:33;15.50;1.00